createdAt,value
2019-03-04T00:01:47.855Z,75.83
2019-03-04T00:03:48.073Z,76.14
2019-03-04T00:05:47.879Z,76.18
2019-03-04T00:07:47.790Z,76.67
2019-03-04T00:09:47.596Z,76.46
2019-03-04T00:11:47.570Z,76.47
2019-03-04T00:13:47.607Z,76.43
2019-03-04T00:15:48.038Z,76.74
2019-03-04T00:17:47.821Z,76.77
2019-03-04T00:19:47.649Z,76.56
2019-03-04T00:21:47.765Z,76.75
2019-03-04T00:23:47.883Z,76.39
2019-03-04T00:25:47.901Z,76.47
2019-03-04T00:27:48.006Z,76.35
2019-03-04T00:29:48.026Z,76.39
2019-03-04T00:31:47.625Z,76.05
2019-03-04T00:33:47.840Z,75.93
2019-03-04T00:35:47.642Z,75.68
2019-03-04T00:37:47.963Z,75.84
2019-03-04T00:39:47.515Z,75.95
2019-03-04T00:41:47.778Z,76.43
2019-03-04T00:43:47.793Z,76.63
2019-03-04T00:45:48.012Z,76.75
2019-03-04T00:47:47.815Z,77.11
2019-03-04T00:49:47.622Z,77.37
2019-03-04T00:51:47.861Z,77.37
2019-03-04T00:53:48.020Z,77.76
2019-03-04T00:55:47.808Z,78.10
2019-03-04T00:57:47.628Z,78.25
2019-03-04T00:59:47.861Z,78.04
2019-03-04T01:01:47.849Z,78.11
2019-03-04T01:03:47.677Z,77.77
2019-03-04T01:05:48.224Z,78.04
2019-03-04T01:07:47.974Z,77.90
2019-03-04T01:09:48.263Z,77.79
2019-03-04T01:11:47.721Z,77.74
2019-03-04T01:13:47.757Z,78.35
2019-03-04T01:15:47.781Z,78.21
2019-03-04T01:17:48.396Z,78.59
2019-03-04T01:19:47.994Z,79.13
2019-03-04T01:21:47.809Z,79.71
2019-03-04T01:23:47.828Z,79.96
2019-03-04T01:25:47.610Z,79.70
2019-03-04T01:27:47.651Z,80.00
2019-03-04T01:29:47.645Z,79.87
2019-03-04T01:31:47.833Z,80.00
2019-03-04T01:33:48.162Z,79.95
2019-03-04T01:35:47.997Z,79.34
2019-03-04T01:37:48.007Z,79.58
2019-03-04T01:39:47.758Z,79.49
2019-03-04T01:41:48.022Z,79.24
2019-03-04T01:43:47.598Z,79.02
2019-03-04T01:45:47.842Z,79.34
2019-03-04T01:47:47.854Z,79.33
2019-03-04T01:49:48.085Z,79.09
2019-03-04T01:51:47.779Z,78.88
2019-03-04T01:53:47.994Z,79.09
2019-03-04T01:55:48.039Z,79.08
2019-03-04T01:57:48.078Z,78.64
2019-03-04T01:59:47.926Z,78.58
2019-03-04T02:01:47.934Z,78.23
2019-03-04T02:03:47.721Z,78.16
2019-03-04T02:05:47.927Z,77.58
2019-03-04T02:07:48.174Z,77.25
2019-03-04T02:09:48.189Z,77.12
2019-03-04T02:11:48.151Z,77.20
2019-03-04T02:13:48.162Z,76.95
2019-03-04T02:15:48.226Z,76.50
2019-03-04T02:17:48.414Z,76.29
2019-03-04T02:19:47.948Z,76.25
2019-03-04T02:21:47.952Z,75.52
2019-03-04T02:23:48.273Z,75.73
2019-03-04T02:25:48.001Z,75.73
2019-03-04T02:27:47.789Z,75.40
2019-03-04T02:29:47.757Z,74.70
2019-03-04T02:31:48.092Z,74.58
2019-03-04T02:33:48.233Z,73.74
2019-03-04T02:35:48.233Z,73.52
2019-03-04T02:37:48.041Z,72.75
2019-03-04T02:39:48.060Z,72.38
2019-03-04T02:41:48.277Z,71.99
2019-03-04T02:43:48.187Z,72.06
2019-03-04T02:45:47.789Z,71.59
2019-03-04T02:47:47.633Z,71.75
2019-03-04T02:49:47.707Z,71.56
2019-03-04T02:51:48.288Z,71.81
2019-03-04T02:53:47.846Z,71.73
2019-03-04T02:55:48.096Z,72.14
2019-03-04T02:57:47.960Z,72.09
2019-03-04T02:59:47.888Z,72.30
2019-03-04T03:01:47.987Z,72.29
2019-03-04T03:03:47.991Z,72.76
2019-03-04T03:05:48.002Z,72.63
2019-03-04T03:07:47.752Z,73.00
2019-03-04T03:09:48.026Z,73.19
2019-03-04T03:11:48.045Z,73.45
2019-03-04T03:13:48.163Z,73.57
2019-03-04T03:15:48.065Z,73.60
2019-03-04T03:17:47.967Z,74.09
2019-03-04T03:19:48.091Z,74.06
2019-03-04T03:21:47.832Z,74.07
2019-03-04T03:23:48.220Z,74.25
2019-03-04T03:25:47.947Z,74.21
2019-03-04T03:27:47.886Z,74.25
2019-03-04T03:29:48.161Z,74.39
2019-03-04T03:31:47.846Z,74.79
2019-03-04T03:33:47.968Z,74.97
2019-03-04T03:35:47.717Z,74.88
2019-03-04T03:37:47.831Z,74.97
2019-03-04T03:39:47.898Z,75.26
2019-03-04T03:41:48.018Z,75.25
2019-03-04T03:43:48.025Z,75.56
2019-03-04T03:45:48.036Z,75.45
2019-03-04T03:47:47.985Z,75.58
2019-03-04T03:49:48.176Z,75.92
2019-03-04T03:51:48.072Z,75.98
2019-03-04T03:53:47.737Z,76.04
2019-03-04T03:55:47.790Z,76.20
2019-03-04T03:57:47.888Z,76.59
2019-03-04T03:59:48.015Z,76.95
2019-03-04T04:01:47.823Z,77.60
2019-03-04T04:03:48.144Z,78.15
2019-03-04T04:05:48.358Z,78.45
2019-03-04T04:07:48.379Z,79.27
2019-03-04T04:09:48.172Z,79.22
2019-03-04T04:11:48.191Z,79.68
2019-03-04T04:13:47.743Z,80.01
2019-03-04T04:15:48.009Z,80.11
2019-03-04T04:17:48.176Z,80.18
2019-03-04T04:19:47.819Z,80.12
2019-03-04T04:21:48.039Z,80.39
2019-03-04T04:23:48.195Z,80.35
2019-03-04T04:25:48.027Z,80.34
2019-03-04T04:27:48.293Z,80.20
2019-03-04T04:29:47.891Z,80.51
2019-03-04T04:31:48.102Z,80.26
2019-03-04T04:33:48.097Z,80.12
2019-03-04T04:35:48.025Z,80.33
2019-03-04T04:37:47.772Z,80.29
2019-03-04T04:39:48.247Z,80.34
2019-03-04T04:41:48.060Z,80.45
2019-03-04T04:43:47.816Z,80.54
2019-03-04T04:45:48.298Z,80.27
2019-03-04T04:47:47.794Z,80.13
2019-03-04T04:49:48.201Z,80.13
2019-03-04T04:51:48.222Z,80.08
2019-03-04T04:53:48.436Z,80.14
2019-03-04T04:55:48.248Z,80.15
2019-03-04T04:57:47.816Z,80.15
2019-03-04T04:59:48.361Z,80.12
2019-03-04T05:01:47.917Z,79.96
2019-03-04T05:03:47.980Z,80.26
2019-03-04T05:05:48.351Z,80.14
2019-03-04T05:07:47.998Z,80.38
2019-03-04T05:09:48.221Z,80.31
2019-03-04T05:11:48.128Z,80.34
2019-03-04T05:13:48.147Z,80.23
2019-03-04T05:15:48.157Z,80.15
2019-03-04T05:17:48.370Z,80.51
2019-03-04T05:19:47.973Z,80.77
2019-03-04T05:21:48.197Z,80.79
2019-03-04T05:23:48.202Z,80.52
2019-03-04T05:25:48.211Z,80.60
2019-03-04T05:27:47.970Z,80.58
2019-03-04T05:29:48.032Z,80.62
2019-03-04T05:31:47.890Z,80.45
2019-03-04T05:33:48.333Z,80.67
2019-03-04T05:35:48.149Z,80.40
2019-03-04T05:37:48.376Z,80.39
2019-03-04T05:39:48.109Z,80.59
2019-03-04T05:41:48.115Z,80.67
2019-03-04T05:43:48.217Z,80.64
2019-03-04T05:45:48.220Z,80.74
2019-03-04T05:47:48.545Z,80.83
2019-03-04T05:49:47.938Z,80.92
2019-03-04T05:51:48.095Z,81.04
2019-03-04T05:53:48.165Z,81.15
2019-03-04T05:55:48.125Z,81.07
2019-03-04T05:57:48.202Z,81.04
2019-03-04T05:59:48.212Z,81.46
2019-03-04T06:01:48.217Z,80.97
2019-03-04T06:03:48.332Z,81.22
2019-03-04T06:05:48.049Z,80.73
2019-03-04T06:07:48.136Z,80.83
2019-03-04T06:09:48.156Z,80.43
2019-03-04T06:11:48.173Z,80.06
2019-03-04T06:13:48.104Z,80.22
2019-03-04T06:15:48.411Z,79.81
2019-03-04T06:17:48.103Z,80.09
2019-03-04T06:19:48.328Z,79.93
2019-03-04T06:21:47.846Z,79.89
2019-03-04T06:23:48.081Z,79.36
2019-03-04T06:25:47.955Z,80.16
2019-03-04T06:27:48.371Z,79.92
2019-03-04T06:29:47.975Z,79.79
2019-03-04T06:31:48.155Z,80.54
2019-03-04T06:33:48.417Z,80.83
2019-03-04T06:35:48.320Z,81.09
2019-03-04T06:37:48.279Z,81.67
2019-03-04T06:39:48.148Z,80.58
2019-03-04T06:41:48.598Z,80.94
2019-03-04T06:43:48.358Z,81.08
2019-03-04T06:45:47.979Z,80.52
2019-03-04T06:47:48.130Z,80.98
2019-03-04T06:49:48.190Z,81.62
2019-03-04T06:51:47.960Z,80.81
2019-03-04T06:53:48.223Z,80.56
2019-03-04T06:55:48.544Z,80.65
2019-03-04T06:57:48.341Z,79.92
2019-03-04T06:59:48.347Z,79.38
2019-03-04T07:01:48.363Z,79.53
2019-03-04T07:03:48.554Z,79.23
2019-03-04T07:05:47.976Z,79.16
2019-03-04T07:07:48.196Z,78.52
2019-03-04T07:09:48.201Z,77.87
2019-03-04T07:11:48.030Z,77.32
2019-03-04T07:13:47.977Z,77.57
2019-03-04T07:15:48.241Z,77.58
2019-03-04T07:17:48.518Z,76.57
2019-03-04T07:19:48.242Z,76.07
2019-03-04T07:21:48.217Z,76.27
2019-03-04T07:23:48.185Z,75.51
2019-03-04T07:25:48.226Z,75.63
2019-03-04T07:27:48.312Z,75.35
2019-03-04T07:29:48.328Z,74.79
2019-03-04T07:31:48.330Z,74.90
2019-03-04T07:33:48.445Z,75.15
2019-03-04T07:35:48.460Z,74.51
2019-03-04T07:37:48.260Z,74.55
2019-03-04T07:39:48.234Z,74.21
2019-03-04T07:41:48.901Z,73.95
2019-03-04T07:43:48.710Z,73.89
2019-03-04T07:45:48.484Z,73.13
2019-03-04T07:47:48.203Z,72.78
2019-03-04T07:49:47.971Z,72.45
2019-03-04T07:51:48.168Z,72.98
2019-03-04T07:53:48.011Z,72.37
2019-03-04T07:55:48.273Z,71.99
2019-03-04T07:57:48.232Z,71.77
2019-03-04T07:59:48.039Z,71.07
2019-03-04T08:01:48.078Z,70.57
2019-03-04T08:03:48.080Z,70.59
2019-03-04T08:05:48.332Z,68.75
2019-03-04T08:07:48.070Z,68.85
2019-03-04T08:09:48.146Z,68.33
2019-03-04T08:11:48.263Z,68.03
2019-03-04T08:13:48.476Z,67.75
2019-03-04T08:15:48.487Z,67.14
2019-03-04T08:17:48.203Z,66.20
2019-03-04T08:19:48.100Z,65.97
2019-03-04T08:21:48.216Z,66.39
2019-03-04T08:23:48.330Z,65.87
2019-03-04T08:25:48.350Z,65.61
2019-03-04T08:27:48.348Z,65.63
2019-03-04T08:29:48.360Z,64.64
2019-03-04T08:31:48.259Z,64.14
2019-03-04T08:33:48.123Z,64.73
2019-03-04T08:35:48.399Z,63.39
2019-03-04T08:37:48.138Z,63.20
2019-03-04T08:39:48.628Z,62.77
2019-03-04T08:41:48.945Z,62.74
2019-03-04T08:43:48.343Z,63.25
2019-03-04T08:45:48.363Z,62.05
2019-03-04T08:47:48.172Z,62.86
2019-03-04T08:49:48.134Z,62.74
2019-03-04T08:51:48.385Z,62.54
2019-03-04T08:53:48.293Z,62.87
2019-03-04T08:55:48.200Z,63.49
2019-03-04T08:57:48.321Z,64.38
2019-03-04T08:59:48.342Z,64.54
2019-03-04T09:01:48.301Z,64.29
2019-03-04T09:03:48.114Z,64.25
2019-03-04T09:05:48.374Z,64.83
2019-03-04T09:07:48.252Z,64.80
2019-03-04T09:09:48.394Z,65.16
2019-03-04T09:11:48.272Z,65.56
2019-03-04T09:13:48.301Z,65.68
2019-03-04T09:15:48.360Z,66.25
2019-03-04T09:17:48.336Z,66.99
2019-03-04T09:19:48.098Z,66.94
2019-03-04T09:21:48.361Z,66.83
2019-03-04T09:23:49.966Z,67.11
2019-03-04T09:25:48.585Z,67.01
2019-03-04T09:27:48.379Z,65.83
2019-03-04T09:29:48.296Z,64.71
2019-03-04T09:31:48.396Z,63.75
2019-03-04T09:33:48.393Z,64.08
2019-03-04T09:35:48.332Z,62.25
2019-03-04T09:37:48.558Z,62.83
2019-03-04T09:39:48.355Z,61.71
2019-03-04T09:41:48.164Z,60.11
2019-03-04T09:43:48.117Z,59.19
2019-03-04T09:45:48.709Z,57.88
2019-03-04T09:47:48.711Z,57.47
2019-03-04T09:49:48.298Z,55.99
2019-03-04T09:51:48.535Z,54.49
2019-03-04T09:53:48.686Z,54.88
2019-03-04T09:55:48.353Z,52.86
2019-03-04T09:57:48.356Z,52.97
2019-03-04T09:59:48.306Z,53.13
2019-03-04T10:01:48.185Z,52.65
2019-03-04T10:03:48.403Z,52.19
2019-03-04T10:05:48.423Z,51.86
2019-03-04T10:07:48.214Z,52.01
2019-03-04T10:09:48.740Z,50.60
2019-03-04T10:11:48.371Z,50.05
2019-03-04T10:13:48.587Z,51.39
2019-03-04T10:15:48.478Z,51.76
2019-03-04T10:17:48.579Z,52.54
2019-03-04T10:19:48.600Z,52.33
2019-03-04T10:21:50.015Z,53.13
2019-03-04T10:23:48.613Z,51.42
2019-03-04T10:25:48.317Z,53.15
2019-03-04T10:27:48.640Z,53.77
2019-03-04T10:29:48.440Z,53.76
2019-03-04T10:31:48.299Z,54.81
2019-03-04T10:33:48.471Z,55.15
2019-03-04T10:35:48.481Z,52.80
2019-03-04T10:37:48.605Z,52.31
2019-03-04T10:39:48.964Z,51.86
2019-03-04T10:41:48.972Z,52.56
2019-03-04T10:43:48.422Z,50.98
2019-03-04T10:45:48.414Z,51.86
2019-03-04T10:47:48.320Z,51.75
2019-03-04T10:49:48.824Z,51.80
2019-03-04T10:51:48.578Z,51.86
2019-03-04T10:53:48.545Z,52.50
2019-03-04T10:55:48.595Z,52.40
2019-03-04T10:57:48.518Z,53.35
2019-03-04T10:59:48.335Z,54.02
2019-03-04T11:01:50.090Z,55.06
2019-03-04T11:03:48.518Z,57.01
2019-03-04T11:05:48.870Z,58.50
2019-03-04T11:07:48.570Z,59.84
2019-03-04T11:09:48.407Z,60.79
2019-03-04T11:11:48.408Z,61.63
2019-03-04T11:13:48.705Z,61.24
2019-03-04T11:15:48.509Z,62.44
2019-03-04T11:17:48.433Z,63.14
2019-03-04T11:19:48.537Z,63.78
2019-03-04T11:21:48.342Z,63.76
2019-03-04T11:23:48.506Z,64.36
2019-03-04T11:25:48.893Z,66.80
2019-03-04T11:27:48.586Z,68.58
2019-03-04T11:29:48.465Z,69.50
2019-03-04T11:31:48.293Z,67.60
2019-03-04T11:33:48.615Z,66.18
2019-03-04T11:35:48.626Z,66.50
2019-03-04T11:37:48.645Z,65.55
2019-03-04T11:39:48.346Z,64.63
2019-03-04T11:41:48.502Z,64.45
2019-03-04T11:43:48.678Z,63.33
2019-03-04T11:45:48.484Z,63.44
2019-03-04T11:47:48.592Z,63.66
2019-03-04T11:49:48.344Z,62.51
2019-03-04T11:51:48.425Z,62.49
2019-03-04T11:53:48.533Z,62.74
2019-03-04T11:55:48.334Z,63.09
2019-03-04T11:57:48.636Z,62.62
2019-03-04T11:59:48.585Z,62.26
2019-03-04T12:01:48.782Z,62.64
2019-03-04T12:03:48.590Z,62.00
2019-03-04T12:05:48.600Z,62.26
2019-03-04T12:07:48.549Z,62.03
2019-03-04T12:09:48.588Z,61.81
2019-03-04T12:11:48.839Z,60.44
2019-03-04T12:13:48.535Z,60.67
2019-03-04T12:15:48.756Z,60.61
2019-03-04T12:17:48.565Z,60.84
2019-03-04T12:19:48.678Z,61.15
2019-03-04T12:21:48.585Z,61.41
2019-03-04T12:23:48.503Z,60.78
2019-03-04T12:25:48.508Z,58.00
2019-03-04T12:27:48.687Z,57.77
2019-03-04T12:29:48.735Z,56.95
2019-03-04T12:31:48.441Z,57.40
2019-03-04T12:33:49.290Z,56.04
2019-03-04T12:35:48.671Z,55.71
2019-03-04T12:37:48.585Z,56.58
2019-03-04T12:39:48.772Z,56.75
2019-03-04T12:41:49.781Z,57.35
2019-03-04T12:43:48.639Z,58.38
2019-03-04T12:45:49.243Z,59.08
2019-03-04T12:47:48.637Z,59.54
2019-03-04T12:49:48.654Z,60.12
2019-03-04T12:51:48.667Z,60.72
2019-03-04T12:53:48.786Z,61.16
2019-03-04T12:55:48.682Z,61.06
2019-03-04T12:57:48.635Z,61.26
2019-03-04T12:59:48.437Z,61.68
2019-03-04T13:01:48.616Z,62.47
2019-03-04T13:03:48.731Z,62.52
2019-03-04T13:05:48.739Z,64.01
2019-03-04T13:07:48.563Z,64.58
2019-03-04T13:09:48.743Z,64.97
2019-03-04T13:11:49.214Z,65.68
2019-03-04T13:13:48.996Z,65.61
2019-03-04T13:15:48.777Z,66.71
2019-03-04T13:17:48.407Z,68.85
2019-03-04T13:19:48.625Z,71.76
2019-03-04T13:21:48.841Z,74.81
2019-03-04T13:23:48.496Z,77.09
2019-03-04T13:25:48.562Z,78.85
2019-03-04T13:27:48.565Z,80.18
2019-03-04T13:29:48.697Z,80.79
2019-03-04T13:31:48.533Z,82.31
2019-03-04T13:33:48.807Z,83.58
2019-03-04T13:35:48.765Z,84.65
2019-03-04T13:37:48.831Z,85.57
2019-03-04T13:39:48.632Z,86.29
2019-03-04T13:41:48.711Z,85.24
2019-03-04T13:43:48.973Z,85.29
2019-03-04T13:45:48.767Z,85.73
2019-03-04T13:47:48.479Z,85.26
2019-03-04T13:49:48.601Z,84.18
2019-03-04T13:51:48.615Z,84.62
2019-03-04T13:53:48.515Z,85.28
2019-03-04T13:55:48.623Z,85.86
2019-03-04T13:57:48.850Z,86.45
2019-03-04T13:59:48.853Z,87.23
2019-03-04T14:01:48.668Z,87.44
2019-03-04T14:03:48.652Z,88.62
2019-03-04T14:05:48.713Z,89.43
2019-03-04T14:07:48.793Z,89.85
2019-03-04T14:09:48.761Z,90.34
2019-03-04T14:11:48.778Z,90.50
2019-03-04T14:13:48.732Z,89.29
2019-03-04T14:15:48.745Z,89.08
2019-03-04T14:17:48.766Z,88.74
2019-03-04T14:19:48.982Z,87.62
2019-03-04T14:21:48.570Z,87.83
2019-03-04T14:23:48.718Z,87.74
2019-03-04T14:25:49.845Z,87.76
2019-03-04T14:27:48.813Z,86.70
2019-03-04T14:29:49.029Z,86.61
2019-03-04T14:31:48.846Z,85.95
2019-03-04T14:33:48.860Z,85.93
2019-03-04T14:35:48.862Z,85.32
2019-03-04T14:37:48.874Z,85.46
2019-03-04T14:39:48.610Z,85.73
2019-03-04T14:41:49.844Z,86.40
2019-03-04T14:43:48.703Z,87.01
2019-03-04T14:45:48.709Z,87.77
2019-03-04T14:47:48.930Z,88.72
2019-03-04T14:49:48.579Z,89.67
2019-03-04T14:51:48.741Z,90.12
2019-03-04T14:53:48.699Z,90.94
2019-03-04T14:55:48.699Z,91.70
2019-03-04T14:57:48.722Z,91.36
2019-03-04T14:59:48.795Z,91.71
2019-03-04T15:01:49.321Z,92.26
2019-03-04T15:03:48.898Z,91.83
2019-03-04T15:05:48.940Z,90.09
2019-03-04T15:07:48.954Z,88.41
2019-03-04T15:09:49.532Z,88.43
2019-03-04T15:11:48.618Z,87.72
2019-03-04T15:13:48.873Z,87.11
2019-03-04T15:15:48.652Z,87.33
2019-03-04T15:17:48.730Z,86.74
2019-03-04T15:19:48.916Z,86.18
2019-03-04T15:21:49.266Z,86.34
2019-03-04T15:23:49.149Z,86.96
2019-03-04T15:25:49.153Z,86.83
2019-03-04T15:27:49.166Z,87.23
2019-03-04T15:29:48.843Z,87.07
2019-03-04T15:31:48.826Z,87.29
2019-03-04T15:33:48.765Z,87.41
2019-03-04T15:35:48.804Z,87.32
2019-03-04T15:37:49.174Z,87.49
2019-03-04T15:39:48.762Z,87.33
2019-03-04T15:41:50.337Z,86.34
2019-03-04T15:43:49.040Z,85.76
2019-03-04T15:45:49.069Z,84.20
2019-03-04T15:47:48.838Z,84.16
2019-03-04T15:49:48.881Z,84.21
2019-03-04T15:51:49.096Z,84.30
2019-03-04T15:53:48.737Z,82.91
2019-03-04T15:55:48.923Z,82.63
2019-03-04T15:57:51.013Z,83.35
2019-03-04T15:59:49.014Z,82.34
2019-03-04T16:01:49.282Z,82.68
2019-03-04T16:03:48.717Z,82.57
2019-03-04T16:05:49.397Z,81.95
2019-03-04T16:07:49.311Z,82.79
2019-03-04T16:09:49.002Z,80.02
2019-03-04T16:11:48.563Z,80.46
2019-03-04T16:13:53.363Z,80.51
2019-03-04T16:15:48.854Z,81.62
2019-03-04T16:17:49.356Z,81.54
2019-03-04T16:19:49.062Z,80.89
2019-03-04T16:21:48.807Z,81.51
2019-03-04T16:23:48.991Z,81.52
2019-03-04T16:25:48.891Z,81.85
2019-03-04T16:27:49.007Z,81.30
2019-03-04T16:29:51.441Z,81.42
2019-03-04T16:31:48.825Z,81.14
2019-03-04T16:33:48.836Z,80.94
2019-03-04T16:35:48.647Z,81.94
2019-03-04T16:37:48.986Z,81.64
2019-03-04T16:39:49.595Z,82.17
2019-03-04T16:41:49.096Z,82.33
2019-03-04T16:43:48.978Z,81.43
2019-03-04T16:45:52.079Z,78.55
2019-03-04T16:47:50.030Z,79.88
2019-03-04T16:49:48.990Z,80.15
2019-03-04T16:51:50.100Z,81.47
2019-03-04T16:53:48.894Z,81.83
2019-03-04T16:55:49.176Z,81.27
2019-03-04T16:57:49.103Z,81.80
2019-03-04T16:59:50.393Z,81.91
2019-03-04T17:01:48.983Z,82.04
2019-03-04T17:03:48.972Z,82.37
2019-03-04T17:05:49.226Z,82.68
2019-03-04T17:07:50.808Z,82.62
2019-03-04T17:09:49.037Z,82.64
2019-03-04T17:11:49.159Z,83.28
2019-03-04T17:13:48.743Z,83.67
2019-03-04T17:15:48.852Z,83.58
2019-03-04T17:17:48.889Z,83.48
2019-03-04T17:19:51.974Z,83.17
2019-03-04T17:21:49.115Z,82.59
2019-03-04T17:23:49.331Z,82.26
2019-03-04T17:25:48.896Z,82.30
2019-03-04T17:27:48.993Z,82.49
2019-03-04T17:29:51.517Z,82.02
2019-03-04T17:31:48.874Z,81.92
2019-03-04T17:33:49.502Z,81.89
2019-03-04T17:35:48.993Z,81.31
2019-03-04T17:37:51.604Z,81.31
2019-03-04T17:39:49.387Z,82.06
2019-03-04T17:41:48.921Z,82.43
2019-03-04T17:43:49.248Z,82.81
2019-03-04T17:45:49.054Z,82.61
2019-03-04T17:47:48.652Z,83.31
2019-03-04T17:49:51.881Z,83.36
2019-03-04T17:51:49.291Z,83.48
2019-03-04T17:53:51.702Z,83.84
2019-03-04T17:55:49.104Z,84.20
2019-03-04T17:57:49.339Z,83.42
2019-03-04T17:59:49.113Z,82.84
2019-03-04T18:01:49.349Z,83.08
2019-03-04T18:03:49.357Z,83.49
2019-03-04T18:05:49.162Z,83.36
2019-03-04T18:07:48.966Z,82.99
2019-03-04T18:09:49.198Z,83.28
2019-03-04T18:11:49.781Z,83.66
2019-03-04T18:13:49.130Z,83.71
2019-03-04T18:15:49.212Z,83.67
2019-03-04T18:17:49.248Z,83.90
2019-03-04T18:19:49.158Z,83.56
2019-03-04T18:21:49.159Z,83.92
2019-03-04T18:23:49.273Z,83.59
2019-03-04T18:25:49.070Z,83.63
2019-03-04T18:27:49.183Z,84.05
2019-03-04T18:29:49.203Z,83.94
2019-03-04T18:31:49.167Z,83.60
2019-03-04T18:33:49.024Z,83.81
2019-03-04T18:35:49.179Z,84.18
2019-03-04T18:37:49.101Z,84.18
2019-03-04T18:39:49.258Z,83.89
2019-03-04T18:41:49.586Z,84.27
2019-03-04T18:43:49.286Z,83.90
2019-03-04T18:45:49.705Z,84.24
2019-03-04T18:47:49.311Z,84.11
2019-03-04T18:49:49.116Z,84.26
2019-03-04T18:51:49.535Z,84.71
2019-03-04T18:53:49.276Z,84.66
2019-03-04T18:55:49.259Z,84.53
2019-03-04T18:57:50.844Z,84.86
2019-03-04T18:59:49.221Z,84.22
2019-03-04T19:01:49.706Z,84.95
2019-03-04T19:03:49.199Z,85.01
2019-03-04T19:05:49.484Z,84.93
2019-03-04T19:07:49.112Z,85.21
2019-03-04T19:09:49.134Z,85.41
2019-03-04T19:11:49.340Z,85.08
2019-03-04T19:13:49.155Z,85.75
2019-03-04T19:15:49.366Z,85.55
2019-03-04T19:17:49.384Z,85.88
2019-03-04T19:19:49.192Z,85.64
2019-03-04T19:21:49.407Z,85.68
2019-03-04T19:23:49.213Z,85.71
2019-03-04T19:25:49.426Z,85.88
2019-03-04T19:27:49.352Z,85.77
2019-03-04T19:29:49.320Z,85.80
2019-03-04T19:31:49.461Z,85.74
2019-03-04T19:33:49.397Z,85.44
2019-03-04T19:35:50.098Z,85.69
2019-03-04T19:37:49.192Z,85.99
2019-03-04T19:39:49.443Z,85.41
2019-03-04T19:41:50.328Z,85.39
2019-03-04T19:43:49.127Z,85.34
2019-03-04T19:45:49.343Z,85.30
2019-03-04T19:47:49.350Z,85.62
2019-03-04T19:49:49.277Z,84.79
2019-03-04T19:51:49.171Z,85.10
2019-03-04T19:53:49.483Z,85.05
2019-03-04T19:55:49.196Z,85.24
2019-03-04T19:57:49.208Z,85.34
2019-03-04T19:59:49.414Z,85.39
2019-03-04T20:01:49.333Z,85.30
2019-03-04T20:03:49.356Z,85.45
2019-03-04T20:05:50.257Z,85.33
2019-03-04T20:07:49.258Z,85.67
2019-03-04T20:09:49.375Z,85.68
2019-03-04T20:11:50.614Z,85.57
2019-03-04T20:13:49.395Z,86.00
2019-03-04T20:15:49.414Z,86.15
2019-03-04T20:17:49.425Z,86.58
2019-03-04T20:19:49.231Z,86.79
2019-03-04T20:21:49.655Z,86.95
2019-03-04T20:23:49.216Z,87.08
2019-03-04T20:25:49.261Z,87.24
2019-03-04T20:27:49.479Z,87.38
2019-03-04T20:29:49.491Z,87.75
2019-03-04T20:31:49.514Z,87.73
2019-03-04T20:33:49.305Z,87.13
2019-03-04T20:35:49.533Z,87.62
2019-03-04T20:37:49.440Z,88.01
2019-03-04T20:39:49.443Z,87.78
2019-03-04T20:41:49.695Z,87.79
2019-03-04T20:43:49.381Z,87.84
2019-03-04T20:45:49.282Z,87.79
2019-03-04T20:47:51.170Z,87.78
2019-03-04T20:49:49.519Z,87.92
2019-03-04T20:51:49.270Z,87.73
2019-03-04T20:53:49.376Z,87.84
2019-03-04T20:55:49.333Z,87.99
2019-03-04T20:57:48.949Z,88.00
2019-03-04T20:59:49.065Z,87.74
2019-03-04T21:01:49.368Z,87.96
2019-03-04T21:03:48.938Z,87.63
2019-03-04T21:05:49.190Z,87.65
2019-03-04T21:07:49.612Z,87.85
2019-03-04T21:09:49.175Z,87.71
2019-03-04T21:11:48.921Z,87.77
2019-03-04T21:13:49.197Z,87.61
2019-03-04T21:15:49.219Z,87.93
2019-03-04T21:17:49.265Z,88.09
2019-03-04T21:19:48.969Z,87.82
2019-03-04T21:21:49.299Z,88.40
2019-03-04T21:23:49.398Z,87.99
2019-03-04T21:25:49.204Z,88.20
2019-03-04T21:27:49.006Z,88.62
2019-03-04T21:29:49.032Z,88.15
2019-03-04T21:31:49.139Z,88.47
2019-03-04T21:33:49.250Z,88.90
2019-03-04T21:35:49.195Z,88.57
2019-03-04T21:37:49.001Z,89.25
2019-03-04T21:39:48.990Z,88.35
2019-03-04T21:41:49.221Z,88.87
2019-03-04T21:43:49.211Z,88.71
2019-03-04T21:45:49.205Z,88.84
2019-03-04T21:47:49.229Z,88.84
2019-03-04T21:49:48.947Z,88.50
2019-03-04T21:51:49.031Z,88.66
2019-03-04T21:53:48.962Z,88.87
2019-03-04T21:55:49.185Z,88.97
2019-03-04T21:57:49.190Z,89.26
2019-03-04T21:59:49.304Z,90.33
2019-03-04T22:01:49.449Z,90.13
2019-03-04T22:03:49.113Z,90.85
2019-03-04T22:05:50.557Z,91.58
2019-03-04T22:07:48.929Z,91.44
2019-03-04T22:09:48.887Z,91.07
2019-03-04T22:11:49.137Z,91.19
2019-03-04T22:13:49.175Z,91.39
2019-03-04T22:15:49.771Z,91.39
2019-03-04T22:17:48.972Z,91.42
2019-03-04T22:19:49.006Z,91.67
2019-03-04T22:21:49.388Z,91.23
2019-03-04T22:23:49.442Z,91.21
2019-03-04T22:25:49.260Z,91.06
2019-03-04T22:27:49.061Z,91.37
2019-03-04T22:29:48.933Z,91.21
2019-03-04T22:31:48.881Z,91.72
2019-03-04T22:33:49.187Z,91.56
2019-03-04T22:35:49.183Z,91.86
2019-03-04T22:37:49.215Z,91.90
2019-03-04T22:39:49.229Z,91.70
2019-03-04T22:41:49.209Z,91.77
2019-03-04T22:43:49.487Z,91.72
2019-03-04T22:45:49.281Z,91.60
2019-03-04T22:47:49.174Z,91.72
2019-03-04T22:49:48.980Z,91.56
2019-03-04T22:51:49.202Z,91.61
2019-03-04T22:53:49.310Z,92.07
2019-03-04T22:55:49.140Z,91.98
2019-03-04T22:57:49.324Z,91.14
2019-03-04T22:59:49.139Z,91.51
2019-03-04T23:01:49.360Z,90.89
2019-03-04T23:03:49.327Z,91.15
2019-03-04T23:05:49.377Z,90.54
2019-03-04T23:07:48.972Z,91.09
2019-03-04T23:09:49.124Z,91.09
2019-03-04T23:11:49.201Z,90.95
2019-03-04T23:13:49.222Z,91.12
2019-03-04T23:15:49.245Z,91.38
2019-03-04T23:17:49.340Z,91.58
2019-03-04T23:19:49.153Z,91.22
2019-03-04T23:21:49.179Z,91.28
2019-03-04T23:23:49.245Z,90.80
2019-03-04T23:25:49.385Z,89.44
2019-03-04T23:27:49.192Z,88.57
2019-03-04T23:29:49.003Z,87.69
2019-03-04T23:31:49.217Z,87.42
2019-03-04T23:33:49.131Z,87.28
2019-03-04T23:35:49.034Z,86.66
2019-03-04T23:37:49.325Z,87.12
2019-03-04T23:39:49.673Z,86.93
2019-03-04T23:41:49.210Z,87.21
2019-03-04T23:43:49.155Z,87.49
2019-03-04T23:45:49.812Z,87.57
2019-03-04T23:47:49.416Z,86.96
2019-03-04T23:49:49.017Z,86.96
2019-03-04T23:51:49.334Z,86.56
2019-03-04T23:53:49.146Z,86.18
2019-03-04T23:55:49.375Z,85.50
2019-03-04T23:57:49.340Z,84.85
2019-03-04T23:59:48.989Z,84.33
